Terminal Aerodrome Forecast
Issued by NWS Lake Charles, LA

Home | Current Version | Previous Version | Text Only | Print | Product List | Glossary On
Versions: 1 2 3 4 5 6 7 8 9 10 11 12 13 14 15
536
FTUS44 KLCH 291120
TAFBPT
TAF
KBPT 291120Z 2912/3012 16011KT P6SM RA VCTS BKN025CB
      TEMPO 2912/2916 2SM TSRA BKN015CB
     FM291700 21010KT P6SM VCTS BKN050CB
     FM300000 18006KT P6SM SCT100=

USA.gov is the U.S. government's official web portal to all federal, state and local government web resources and services.